createdAt,value
2024-02-18T00:05:56.507Z,33.50
2024-02-18T00:15:56.885Z,31.40
2024-02-18T00:25:56.891Z,32.70
2024-02-18T00:35:57.134Z,31.20
2024-02-18T00:45:57.438Z,31.30
2024-02-18T00:55:57.605Z,31.00
2024-02-18T01:05:57.870Z,29.40
2024-02-18T01:15:58.089Z,29.10
2024-02-18T01:25:58.274Z,30.80
2024-02-18T01:35:58.553Z,32.50
2024-02-18T01:45:58.564Z,33.50
2024-02-18T01:55:58.810Z,34.10
2024-02-18T02:05:59.015Z,34.00
2024-02-18T02:15:59.248Z,35.30
2024-02-18T02:25:59.254Z,33.00
2024-02-18T02:35:59.544Z,33.90
2024-02-18T02:45:59.566Z,33.00
2024-02-18T02:55:59.809Z,32.10
2024-02-18T03:05:59.901Z,31.10
2024-02-18T03:16:00.007Z,30.70
2024-02-18T03:26:00.167Z,30.60
2024-02-18T03:36:07.045Z,31.40
2024-02-18T03:46:00.431Z,30.80
2024-02-18T03:56:00.608Z,31.20
2024-02-18T04:06:00.839Z,33.00
2024-02-18T04:16:01.107Z,34.60
2024-02-18T04:26:01.059Z,36.40
2024-02-18T04:36:01.376Z,35.50
2024-02-18T04:46:01.407Z,36.60
2024-02-18T04:56:01.619Z,35.70
2024-02-18T05:06:01.908Z,37.60
2024-02-18T05:16:02.179Z,37.40
2024-02-18T05:26:02.198Z,37.80
2024-02-18T05:36:02.494Z,38.90
2024-02-18T05:46:02.474Z,38.20
2024-02-18T05:56:02.785Z,38.30
2024-02-18T06:06:02.858Z,41.10
2024-02-18T06:16:06.249Z,45.50
2024-02-18T06:26:03.085Z,47.60
2024-02-18T06:36:03.295Z,50.40
2024-02-18T06:46:03.622Z,49.20
2024-02-18T06:56:03.656Z,49.50
2024-02-18T07:06:03.887Z,48.00
2024-02-18T07:16:04.193Z,50.50
2024-02-18T07:26:04.353Z,52.00
2024-02-18T07:36:04.587Z,52.60
2024-02-18T07:46:04.821Z,50.60
2024-02-18T07:56:05.077Z,53.20
2024-02-18T08:06:05.064Z,51.30
2024-02-18T08:16:05.610Z,55.00
2024-02-18T08:26:05.383Z,48.50
2024-02-18T08:36:05.610Z,54.80
2024-02-18T08:46:05.832Z,49.20
2024-02-18T08:56:06.182Z,49.60
2024-02-18T09:06:06.245Z,49.00
2024-02-18T09:16:06.544Z,47.20
2024-02-18T09:26:06.541Z,46.30
2024-02-18T09:36:06.821Z,47.60
2024-02-18T09:46:07.073Z,46.80
2024-02-18T09:56:07.289Z,44.40
2024-02-18T10:06:07.503Z,36.50
2024-02-18T10:16:07.793Z,35.60
2024-02-18T10:26:07.810Z,35.50
2024-02-18T10:36:08.101Z,45.70
2024-02-18T10:46:11.613Z,40.40
2024-02-18T10:56:09.303Z,44.10
2024-02-18T11:06:08.632Z,35.90
2024-02-18T11:16:08.814Z,34.80
2024-02-18T11:26:08.877Z,36.30
2024-02-18T11:36:09.110Z,35.00
2024-02-18T11:46:11.266Z,32.90
2024-02-18T11:56:09.185Z,50.10
2024-02-18T12:06:09.441Z,36.70
2024-02-18T12:16:09.653Z,26.20
2024-02-18T12:26:09.966Z,24.50
2024-02-18T12:36:09.930Z,23.90
2024-02-18T12:46:10.552Z,22.80
2024-02-18T12:56:10.521Z,29.90
2024-02-18T13:06:10.662Z,30.90
2024-02-18T13:16:10.824Z,32.40
2024-02-18T13:26:10.866Z,35.10
2024-02-18T13:36:11.071Z,34.40
2024-02-18T13:46:11.408Z,35.20
2024-02-18T13:56:13.774Z,32.00
2024-02-18T14:06:11.515Z,33.00
2024-02-18T14:16:11.762Z,32.10
2024-02-18T14:26:11.975Z,32.20
2024-02-18T14:36:12.290Z,30.40
2024-02-18T14:46:12.670Z,31.40
2024-02-18T14:56:12.827Z,29.70
2024-02-18T15:06:12.883Z,26.40
2024-02-18T15:16:12.814Z,21.10
2024-02-18T15:26:12.807Z,14.10
2024-02-18T15:36:12.974Z,16.80
2024-02-18T15:46:13.313Z,16.10
2024-02-18T15:56:13.281Z,11.90
2024-02-18T16:06:13.689Z,11.90
2024-02-18T16:16:13.727Z,18.90
2024-02-18T16:26:13.902Z,20.80
2024-02-18T16:36:14.065Z,21.20
2024-02-18T16:46:14.459Z,27.80
2024-02-18T16:56:14.454Z,18.90
2024-02-18T17:06:15.745Z,17.80
2024-02-18T17:16:14.723Z,23.00
2024-02-18T17:26:14.967Z,65.10
2024-02-18T17:36:15.294Z,20.60
2024-02-18T17:46:15.424Z,19.50
2024-02-18T17:56:15.372Z,25.70
2024-02-18T18:06:15.644Z,24.90
2024-02-18T18:16:20.201Z,21.00
2024-02-18T18:26:15.978Z,22.30
2024-02-18T18:36:16.199Z,24.50
2024-02-18T18:46:16.421Z,26.40
2024-02-18T18:56:16.696Z,27.70
2024-02-18T19:06:16.741Z,28.00
2024-02-18T19:16:16.974Z,38.50
2024-02-18T19:26:16.984Z,22.50
2024-02-18T19:36:17.386Z,25.30
2024-02-18T19:46:17.539Z,23.90
2024-02-18T19:56:17.709Z,25.50
2024-02-18T20:06:17.710Z,33.00
2024-02-18T20:16:18.097Z,32.00
2024-02-18T20:26:18.035Z,19.80
2024-02-18T20:36:19.558Z,21.50
2024-02-18T20:46:20.032Z,23.00
2024-02-18T20:56:18.603Z,27.50
2024-02-18T21:06:18.584Z,26.10
2024-02-18T21:16:18.795Z,29.40
2024-02-18T21:26:21.398Z,23.00
2024-02-18T21:36:19.254Z,26.70
2024-02-18T21:46:19.427Z,20.30
2024-02-18T21:56:19.496Z,22.90
2024-02-18T22:06:19.527Z,24.30
2024-02-18T22:16:19.792Z,24.10
2024-02-18T22:26:19.932Z,21.30
2024-02-18T22:36:20.144Z,21.40
2024-02-18T22:46:20.353Z,18.80
2024-02-18T22:56:20.509Z,17.90
2024-02-18T23:06:20.775Z,15.30
2024-02-18T23:16:21.153Z,14.10
2024-02-18T23:26:21.190Z,13.20
2024-02-18T23:36:21.553Z,10.90
2024-02-18T23:46:21.889Z,9.50
2024-02-18T23:56:21.725Z,11.10
